Time;durP1;ratioP1;P1;durP2;ratioP2;P2;SDS_P1;SDS_P2;PMS_P1;PMS_P2;Temp;Humidity;BMP_temperature;BMP_pressure;BME280_temperature;BME280_humidity;BME280_pressure;Samples;Min_cycle;Max_cycle;Signal;HPM_P1;HPM_P2
2020/12/04 00:04:11;;;;;;;12.05;8.15;;;;;;;3.35;100.00;97797.50;10456836;28;20124;-70
2020/12/04 00:09:12;;;;;;;11.70;7.53;;;;;;;3.34;100.00;97782.00;10460332;28;20044;-69
2020/12/04 00:14:13;;;;;;;9.60;6.93;;;;;;;3.38;100.00;97809.50;10460174;28;20064;-70
2020/12/04 00:19:15;;;;;;;10.85;7.47;;;;;;;3.41;100.00;97784.13;10463191;28;20040;-69
2020/12/04 00:24:16;;;;;;;11.70;7.40;;;;;;;3.40;100.00;97764.25;10452086;28;20045;-70
2020/12/04 00:29:17;;;;;;;8.45;6.03;;;;;;;3.44;100.00;97757.06;10458685;28;20041;-70
2020/12/04 00:34:20;;;;;;;10.18;5.38;;;;;;;3.43;100.00;97747.63;10429790;28;20489;-70
2020/12/04 00:39:21;;;;;;;10.45;6.97;;;;;;;3.38;100.00;97741.84;10442015;28;20037;-70
2020/12/04 00:44:22;;;;;;;8.13;6.72;;;;;;;3.47;100.00;97763.88;10458497;28;20068;-70
2020/12/04 00:49:23;;;;;;;11.07;7.30;;;;;;;3.38;100.00;97715.81;10440275;28;20049;-70
2020/12/04 00:54:25;;;;;;;9.50;6.95;;;;;;;3.25;100.00;97707.09;10436824;28;20059;-70
2020/12/04 00:59:27;;;;;;;9.75;6.38;;;;;;;3.27;100.00;97682.66;10415613;28;20053;-70
2020/12/04 01:04:28;;;;;;;10.05;7.07;;;;;;;3.18;100.00;97692.81;10436919;28;20049;-70
2020/12/04 01:09:31;;;;;;;11.13;7.40;;;;;;;3.23;100.00;97673.38;10447593;28;20041;-70
2020/12/04 01:14:32;;;;;;;10.88;7.13;;;;;;;3.23;100.00;97688.16;10416561;28;20099;-70
2020/12/04 01:19:33;;;;;;;11.48;7.45;;;;;;;3.34;100.00;97681.38;10453316;28;20047;-70
2020/12/04 01:24:34;;;;;;;10.02;6.80;;;;;;;3.38;100.00;97658.59;10478538;28;20044;-70
2020/12/04 01:29:36;;;;;;;8.25;5.88;;;;;;;3.33;100.00;97668.44;10456545;28;20056;-70
2020/12/04 01:34:37;;;;;;;9.63;7.65;;;;;;;3.29;100.00;97662.59;10445255;28;20560;-70
2020/12/04 01:39:38;;;;;;;10.85;7.03;;;;;;;3.38;100.00;97655.97;10445937;28;20508;-70
2020/12/04 01:44:39;;;;;;;9.27;6.80;;;;;;;3.31;100.00;97634.72;10423491;28;20056;-70
2020/12/04 01:49:40;;;;;;;10.52;7.32;;;;;;;3.36;100.00;97640.47;10408746;28;20045;-70
2020/12/04 01:54:46;;;;;;;11.32;6.32;;;;;;;3.32;100.00;97625.16;10418964;28;20079;-69
2020/12/04 01:59:47;;;;;;;8.13;5.40;;;;;;;3.43;100.00;97633.94;10455021;28;20088;-70
2020/12/04 02:04:50;;;;;;;10.20;6.75;;;;;;;3.35;100.00;97636.19;10446695;28;20034;-69
2020/12/04 02:09:55;;;;;;;10.20;6.50;;;;;;;3.30;100.00;97625.25;10415035;28;20049;-70
2020/12/04 02:14:56;;;;;;;8.70;6.18;;;;;;;3.31;100.00;97600.91;10413869;28;20481;-70
2020/12/04 02:19:57;;;;;;;9.20;5.80;;;;;;;3.32;100.00;97599.13;10457869;28;20040;-70
2020/12/04 02:24:58;;;;;;;9.85;6.63;;;;;;;3.41;100.00;97609.78;10496613;28;20051;-70
2020/12/04 02:30:00;;;;;;;9.52;7.15;;;;;;;3.33;100.00;97604.25;10442693;28;20417;-70
2020/12/04 02:35:01;;;;;;;10.40;7.90;;;;;;;3.31;100.00;97572.28;10451986;28;20045;-70
2020/12/04 02:40:03;;;;;;;8.90;6.35;;;;;;;3.31;100.00;97566.25;10465528;28;20041;-70
2020/12/04 02:45:04;;;;;;;6.90;5.22;;;;;;;3.23;100.00;97565.88;10493652;28;20049;-70
2020/12/04 02:50:05;;;;;;;9.52;6.57;;;;;;;3.29;100.00;97540.31;10452788;28;20056;-70
2020/12/04 02:55:06;;;;;;;8.23;7.25;;;;;;;3.18;100.00;97510.75;10437158;28;20423;-70
2020/12/04 03:00:07;;;;;;;8.50;5.63;;;;;;;3.24;100.00;97526.78;10454195;28;20056;-70
2020/12/04 03:05:08;;;;;;;9.75;7.05;;;;;;;3.23;100.00;97514.69;10454820;28;20041;-70
2020/12/04 03:10:09;;;;;;;10.13;7.03;;;;;;;3.19;100.00;97523.63;10439396;28;20049;-70
2020/12/04 03:15:10;;;;;;;8.07;5.82;;;;;;;3.18;100.00;97497.72;10420786;28;20049;-70
2020/12/04 03:20:12;;;;;;;10.18;6.40;;;;;;;3.26;100.00;97514.53;10469249;28;20072;-70
2020/12/04 03:25:13;;;;;;;8.07;5.05;;;;;;;3.33;100.00;97481.97;10491341;28;20048;-69
2020/12/04 03:30:14;;;;;;;8.57;5.53;;;;;;;3.39;100.00;97496.34;10458414;28;20041;-70
2020/12/04 03:35:15;;;;;;;9.15;6.30;;;;;;;3.31;100.00;97476.03;10429199;28;20056;-69
2020/12/04 03:40:17;;;;;;;8.48;4.97;;;;;;;3.41;100.00;97476.25;10444262;28;20052;-70
2020/12/04 03:45:18;;;;;;;7.95;5.20;;;;;;;3.40;100.00;97488.44;10461998;28;20064;-70
2020/12/04 03:50:19;;;;;;;8.50;4.88;;;;;;;3.50;100.00;97514.69;10448163;28;20037;-70
2020/12/04 03:55:20;;;;;;;7.75;4.93;;;;;;;3.59;100.00;97485.47;10443994;28;20067;-70
2020/12/04 04:00:22;;;;;;;9.32;5.95;;;;;;;3.64;100.00;97485.97;10472219;28;20059;-70
2020/12/04 04:05:23;;;;;;;10.30;5.15;;;;;;;3.69;100.00;97491.69;10459820;28;20651;-69
2020/12/04 04:10:24;;;;;;;6.97;4.72;;;;;;;3.67;100.00;97477.16;10460955;28;20041;-69
2020/12/04 04:15:25;;;;;;;7.78;5.70;;;;;;;3.76;100.00;97484.34;10460196;28;20040;-70
2020/12/04 04:20:27;;;;;;;6.13;4.13;;;;;;;3.92;100.00;97484.16;10454131;28;20461;-69
2020/12/04 04:25:28;;;;;;;7.13;4.43;;;;;;;3.90;100.00;97515.50;10459969;28;20048;-70
2020/12/04 04:30:29;;;;;;;6.78;4.63;;;;;;;3.95;100.00;97507.34;10446209;28;20052;-70
2020/12/04 04:35:31;;;;;;;7.40;4.60;;;;;;;3.96;100.00;97502.06;10418986;28;20045;-70
2020/12/04 04:40:32;;;;;;;6.45;4.82;;;;;;;3.95;100.00;97508.19;10422493;28;20051;-70
2020/12/04 04:45:34;;;;;;;5.10;3.85;;;;;;;3.97;100.00;97508.09;10436541;28;20063;-70
2020/12/04 04:50:35;;;;;;;6.15;4.53;;;;;;;3.86;100.00;97523.59;10423468;28;20041;-70
2020/12/04 04:55:41;;;;;;;5.38;3.40;;;;;;;4.01;100.00;97499.16;10416789;28;20041;-70
2020/12/04 05:00:42;;;;;;;7.40;5.13;;;;;;;3.99;100.00;97499.25;10452264;28;20484;-70
2020/12/04 05:05:47;;;;;;;6.50;4.38;;;;;;;4.10;100.00;97498.53;10448566;28;20071;-70
2020/12/04 05:10:49;;;;;;;6.53;5.00;;;;;;;4.04;100.00;97517.16;10475449;28;20044;-70
2020/12/04 05:15:50;;;;;;;6.22;4.28;;;;;;;4.08;100.00;97516.03;10478020;28;20044;-70
2020/12/04 05:20:53;;;;;;;7.28;4.53;;;;;;;4.08;100.00;97501.25;10470399;28;20056;-70
2020/12/04 05:25:55;;;;;;;6.10;4.07;;;;;;;4.08;100.00;97555.94;10402037;28;20037;-70
2020/12/04 05:31:09;;;;;;;6.82;4.13;;;;;;;4.23;100.00;97519.38;10420787;28;20076;-69
2020/12/04 05:36:29;;;;;;;5.28;3.67;;;;;;;4.19;100.00;97516.97;10416211;28;20040;-70
2020/12/04 05:41:30;;;;;;;5.65;3.88;;;;;;;4.26;100.00;97522.59;10419063;28;20063;-70
2020/12/04 05:46:31;;;;;;;6.25;4.30;;;;;;;4.31;100.00;97548.34;10453718;28;20052;-71
2020/12/04 05:51:35;;;;;;;4.93;3.72;;;;;;;4.28;100.00;97531.13;10476763;28;20518;-71
2020/12/04 05:56:40;;;;;;;5.20;3.70;;;;;;;4.37;100.00;97538.31;10430360;28;20052;-71
2020/12/04 06:01:45;;;;;;;6.45;3.97;;;;;;;4.31;100.00;97556.16;10436400;28;20057;-71
2020/12/04 06:06:49;;;;;;;5.85;4.07;;;;;;;4.36;100.00;97554.06;10452061;28;20374;-70
2020/12/04 06:11:50;;;;;;;5.38;3.83;;;;;;;4.23;100.00;97555.84;10456224;28;20040;-71
2020/12/04 06:17:10;;;;;;;5.57;4.15;;;;;;;4.35;100.00;97591.50;10456414;28;20680;-70
2020/12/04 06:22:17;;;;;;;6.43;3.92;;;;;;;4.46;100.00;97568.97;10483246;28;20036;-71
2020/12/04 06:27:44;;;;;;;4.95;3.53;;;;;;;4.42;100.00;97566.69;10449506;28;20124;-70
2020/12/04 06:32:49;;;;;;;5.95;4.05;;;;;;;4.43;100.00;97555.34;10446500;28;20489;-70
2020/12/04 06:37:51;;;;;;;6.53;3.70;;;;;;;4.50;100.00;97572.22;10421372;28;20041;-71
2020/12/04 06:42:54;;;;;;;4.80;3.92;;;;;;;4.44;100.00;97557.81;10460093;28;20418;-71
2020/12/04 06:48:15;;;;;;;5.15;3.78;;;;;;;4.60;100.00;97581.09;10431953;28;20049;-71
2020/12/04 06:53:16;;;;;;;5.38;3.65;;;;;;;4.62;100.00;97594.00;10422129;28;20042;-71
2020/12/04 06:58:17;;;;;;;4.32;3.00;;;;;;;4.66;100.00;97601.50;10448602;28;20052;-71
2020/12/04 07:03:18;;;;;;;4.75;2.80;;;;;;;4.76;100.00;97617.38;10474819;28;20161;-70
2020/12/04 07:08:19;;;;;;;4.60;3.28;;;;;;;4.69;100.00;97608.28;10502590;28;20055;-70
2020/12/04 07:13:21;;;;;;;4.63;2.65;;;;;;;4.76;100.00;97604.34;10446879;28;20040;-70
2020/12/04 07:18:29;;;;;;;4.70;3.08;;;;;;;4.85;100.00;97632.38;10480827;28;20052;-70
2020/12/04 07:23:30;;;;;;;5.97;3.30;;;;;;;4.77;100.00;97647.72;10498844;28;20044;-70
2020/12/04 07:28:32;;;;;;;5.80;3.88;;;;;;;4.82;100.00;97666.50;10475675;28;20061;-71
2020/12/04 07:33:33;;;;;;;3.67;2.60;;;;;;;4.86;100.00;97666.16;10442122;28;20068;-70
2020/12/04 07:38:35;;;;;;;4.53;3.03;;;;;;;4.96;100.00;97684.63;10442183;28;20056;-69
2020/12/04 07:43:36;;;;;;;5.60;3.55;;;;;;;4.85;100.00;97689.78;10441726;28;20040;-70
2020/12/04 07:48:37;;;;;;;4.93;3.05;;;;;;;4.97;100.00;97701.97;10459979;28;20053;-70
2020/12/04 07:53:38;;;;;;;4.63;2.90;;;;;;;5.05;100.00;97698.81;10459747;28;20052;-71
2020/12/04 07:58:40;;;;;;;5.65;3.53;;;;;;;5.06;100.00;97700.50;10458903;28;20060;-70
2020/12/04 08:03:48;;;;;;;4.28;3.20;;;;;;;5.13;100.00;97705.19;10455374;28;20583;-70
2020/12/04 08:09:12;;;;;;;6.53;2.88;;;;;;;5.22;100.00;97722.00;10476110;28;20048;-70
2020/12/04 08:14:21;;;;;;;4.63;3.28;;;;;;;5.27;100.00;97718.13;10500193;28;20040;-70
2020/12/04 08:19:31;;;;;;;5.07;3.25;;;;;;;5.42;100.00;97724.06;10474752;28;20048;-70
2020/12/04 08:24:34;;;;;;;4.22;2.70;;;;;;;5.39;100.00;97713.84;10485280;28;20116;-71
2020/12/04 08:29:41;;;;;;;4.38;3.10;;;;;;;5.50;100.00;97729.59;10441118;28;20048;-70
2020/12/04 08:34:42;;;;;;;4.30;2.90;;;;;;;5.65;100.00;97727.69;10449878;28;20507;-70
2020/12/04 08:39:47;;;;;;;5.20;3.20;;;;;;;5.78;100.00;97743.31;10445510;28;20055;-70
2020/12/04 08:44:56;;;;;;;4.35;2.88;;;;;;;6.05;100.00;97741.38;10457016;28;20041;-71
2020/12/04 08:50:05;;;;;;;4.65;3.40;;;;;;;5.75;100.00;97715.66;10448961;28;20052;-71
2020/12/04 08:55:12;;;;;;;5.30;3.53;;;;;;;5.83;100.00;97746.44;10398078;28;20451;-70
2020/12/04 09:00:20;;;;;;;5.25;3.25;;;;;;;5.83;100.00;97725.56;10455401;28;20049;-71
2020/12/04 09:05:21;;;;;;;5.50;2.83;;;;;;;6.02;100.00;97732.00;10455988;28;20036;-70
2020/12/04 09:10:22;;;;;;;4.82;2.85;;;;;;;6.21;100.00;97738.50;10486541;28;20046;-69
2020/12/04 09:15:26;;;;;;;4.95;2.95;;;;;;;6.55;100.00;97742.09;10463976;28;20051;-70
2020/12/04 09:20:29;;;;;;;4.00;2.70;;;;;;;7.24;100.00;97759.53;10457507;28;20507;-71
2020/12/04 09:25:32;;;;;;;3.75;2.08;;;;;;;8.39;100.00;97802.06;10446379;28;20044;-70
2020/12/04 09:30:49;;;;;;;3.45;2.10;;;;;;;8.56;100.00;97772.66;10456535;28;20469;-71
2020/12/04 09:35:50;;;;;;;2.85;1.80;;;;;;;7.06;100.00;97758.31;10455466;28;20059;-70
2020/12/04 09:40:51;;;;;;;4.65;2.10;;;;;;;6.67;100.00;97756.91;10455601;28;20037;-70
2020/12/04 09:45:52;;;;;;;3.65;2.30;;;;;;;6.55;100.00;97783.94;10455602;28;20068;-72
2020/12/04 09:50:53;;;;;;;2.90;1.95;;;;;;;6.37;100.00;97791.34;10425468;28;20534;-71
2020/12/04 09:55:54;;;;;;;3.28;2.10;;;;;;;6.36;100.00;97798.34;10487945;28;20075;-70
2020/12/04 10:00:55;;;;;;;4.05;2.58;;;;;;;6.43;100.00;97807.44;10429249;28;20077;-71
2020/12/04 10:05:57;;;;;;;3.03;1.85;;;;;;;6.56;100.00;97810.00;10414294;28;20049;-70
2020/12/04 10:10:58;;;;;;;5.53;2.72;;;;;;;6.64;100.00;97806.81;10464784;28;20049;-70
2020/12/04 10:16:04;;;;;;;3.55;2.20;;;;;;;7.62;100.00;97816.84;10494190;28;20079;-70
2020/12/04 10:21:05;;;;;;;3.42;1.90;;;;;;;7.22;100.00;97791.06;10429908;28;20048;-70
2020/12/04 10:26:06;;;;;;;4.90;2.03;;;;;;;7.72;100.00;97793.38;10442838;28;20040;-71
2020/12/04 10:31:07;;;;;;;4.43;2.10;;;;;;;7.90;100.00;97781.47;10454768;28;20036;-71
2020/12/04 10:36:09;;;;;;;2.78;1.83;;;;;;;7.96;100.00;97787.06;10455128;28;20057;-71
2020/12/04 10:41:10;;;;;;;3.67;1.60;;;;;;;9.44;100.00;97798.63;10454754;28;20480;-72
2020/12/04 10:46:11;;;;;;;2.70;1.52;;;;;;;8.21;100.00;97774.63;10436778;28;20060;-71
2020/12/04 10:51:12;;;;;;;2.17;1.00;;;;;;;8.10;100.00;97803.50;10451281;28;20053;-71
2020/12/04 10:56:16;;;;;;;1.92;0.60;;;;;;;8.01;99.95;97794.59;10453308;28;20082;-71
2020/12/04 11:01:39;;;;;;;1.93;0.73;;;;;;;7.81;100.00;97777.78;10492904;28;20049;-70
2020/12/04 11:06:40;;;;;;;1.48;0.75;;;;;;;7.85;99.54;97799.38;10460040;28;20029;-71
2020/12/04 11:11:41;;;;;;;2.35;0.98;;;;;;;7.90;100.00;97805.06;10494057;28;20055;-72
2020/12/04 11:16:43;;;;;;;1.63;0.80;;;;;;;7.86;98.52;97801.88;10469654;28;20396;-71
2020/12/04 11:21:44;;;;;;;0.93;0.60;;;;;;;7.76;100.00;97803.53;10438124;28;20489;-71
2020/12/04 11:26:45;;;;;;;0.90;0.70;;;;;;;7.52;100.00;97793.16;10454125;28;20122;-72
2020/12/04 11:31:46;;;;;;;2.03;0.90;;;;;;;7.72;100.00;97796.00;10461545;28;20087;-72
2020/12/04 11:36:47;;;;;;;5.63;3.28;;;;;;;7.71;100.00;97792.56;10443487;28;20048;-72
2020/12/04 11:41:50;;;;;;;2.22;0.88;;;;;;;10.05;83.48;97840.69;10460922;28;20389;-71
2020/12/04 11:46:51;;;;;;;2.15;0.90;;;;;;;8.59;88.23;97801.28;10460856;28;20041;-72
2020/12/04 11:51:53;;;;;;;3.13;0.95;;;;;;;8.57;89.54;97802.34;10446715;28;20042;-71
2020/12/04 11:56:54;;;;;;;3.83;2.00;;;;;;;8.12;94.93;97812.09;10435899;28;20057;-72
2020/12/04 12:01:56;;;;;;;3.65;1.60;;;;;;;8.75;93.85;97825.34;10489618;28;20048;-72
2020/12/04 12:06:57;;;;;;;4.78;2.35;;;;;;;7.88;99.72;97834.00;10485413;28;20044;-72
2020/12/04 12:11:58;;;;;;;2.95;1.30;;;;;;;8.05;100.00;97824.00;10481548;28;20459;-72
2020/12/04 12:16:59;;;;;;;3.80;1.90;;;;;;;8.23;98.21;97839.13;10457834;28;20055;-71
2020/12/04 12:22:00;;;;;;;2.33;1.00;;;;;;;8.04;100.00;97836.28;10474135;28;20045;-72
2020/12/04 12:27:02;;;;;;;2.60;1.35;;;;;;;8.10;100.00;97841.06;10474576;28;20033;-72
2020/12/04 12:32:06;;;;;;;1.67;1.02;;;;;;;8.09;100.00;97831.53;10447072;28;20047;-71
2020/12/04 12:37:07;;;;;;;1.88;1.30;;;;;;;7.73;100.00;97840.44;10469794;28;20048;-71
2020/12/04 12:42:10;;;;;;;3.08;0.95;;;;;;;7.63;100.00;97826.38;10484713;28;20124;-71
2020/12/04 12:47:13;;;;;;;2.53;0.93;;;;;;;7.66;100.00;97830.56;10494861;28;20079;-71
2020/12/04 12:52:14;;;;;;;1.67;0.90;;;;;;;7.51;100.00;97825.53;10497331;28;20044;-71
2020/12/04 12:57:15;;;;;;;1.38;1.00;;;;;;;7.64;100.00;97825.44;10479488;28;20076;-70
2020/12/04 13:02:17;;;;;;;1.95;0.98;;;;;;;7.88;100.00;97836.63;10472003;28;20051;-71
2020/12/04 13:07:19;;;;;;;1.23;0.90;;;;;;;7.91;100.00;97836.41;10452420;28;20049;-70
2020/12/04 13:12:20;;;;;;;2.03;1.17;;;;;;;7.78;100.00;97835.69;10482355;28;20051;-70
2020/12/04 13:17:21;;;;;;;2.72;0.90;;;;;;;7.64;100.00;97838.53;10495820;28;20048;-71
2020/12/04 13:22:22;;;;;;;3.55;1.45;;;;;;;7.51;100.00;97840.44;10469691;28;20699;-71
2020/12/04 13:27:23;;;;;;;2.60;1.30;;;;;;;7.38;100.00;97843.13;10488021;28;20044;-66
2020/12/04 13:32:24;;;;;;;2.53;1.20;;;;;;;7.30;100.00;97858.56;10476831;28;20052;-72
2020/12/04 13:37:25;;;;;;;2.72;1.23;;;;;;;7.22;100.00;97860.94;10474027;28;20044;-72
2020/12/04 13:42:26;;;;;;;2.88;1.05;;;;;;;7.16;100.00;97859.63;10454902;28;20044;-72
2020/12/04 13:47:27;;;;;;;2.80;1.20;;;;;;;7.14;100.00;97853.66;10455767;28;20040;-72
2020/12/04 13:52:29;;;;;;;4.75;1.70;;;;;;;7.10;100.00;97846.16;10474791;28;20454;-71
2020/12/04 13:57:30;;;;;;;2.65;1.05;;;;;;;7.11;100.00;97855.69;10444259;28;20053;-70
2020/12/04 14:02:31;;;;;;;1.88;1.05;;;;;;;6.99;100.00;97869.66;10461776;28;20049;-72
2020/12/04 14:07:34;;;;;;;3.28;1.42;;;;;;;6.84;100.00;97854.16;10494533;28;20052;-71
2020/12/04 14:12:35;;;;;;;4.35;1.30;;;;;;;6.75;100.00;97865.28;10485007;28;20063;-72
2020/12/04 14:17:36;;;;;;;2.40;1.10;;;;;;;6.86;100.00;97885.44;10465152;28;20048;-72
2020/12/04 14:22:40;;;;;;;1.58;1.20;;;;;;;6.83;100.00;97885.66;10468252;28;20051;-71
2020/12/04 14:27:42;;;;;;;2.30;0.85;;;;;;;6.83;100.00;97891.72;10463194;28;20477;-72
2020/12/04 14:32:43;;;;;;;2.15;1.38;;;;;;;6.87;100.00;97900.16;10487712;28;20052;-72
2020/12/04 14:37:44;;;;;;;2.58;1.25;;;;;;;6.85;100.00;97908.16;10478474;28;20051;-70
2020/12/04 14:42:45;;;;;;;4.07;1.30;;;;;;;6.87;100.00;97918.47;10479531;28;20040;-71
2020/12/04 14:47:46;;;;;;;2.45;1.38;;;;;;;6.85;100.00;97923.00;10489173;28;20044;-72
2020/12/04 14:52:48;;;;;;;2.72;1.52;;;;;;;6.79;100.00;97941.75;10470936;28;20040;-70
2020/12/04 14:57:49;;;;;;;3.05;1.30;;;;;;;6.80;100.00;97952.13;10477216;28;20052;-71
2020/12/04 15:02:50;;;;;;;2.40;1.20;;;;;;;6.75;100.00;97946.38;10469271;28;20071;-70
2020/12/04 15:07:51;;;;;;;2.92;1.23;;;;;;;6.70;100.00;97953.69;10493490;28;20055;-69
2020/12/04 15:12:52;;;;;;;2.97;1.23;;;;;;;6.61;100.00;97969.25;10502088;28;20491;-71
2020/12/04 15:17:53;;;;;;;2.60;1.30;;;;;;;6.67;100.00;97982.72;10443895;28;20489;-71
2020/12/04 15:22:54;;;;;;;2.83;1.33;;;;;;;6.64;100.00;97992.53;10457133;28;20986;-71
2020/12/04 15:27:56;;;;;;;2.65;1.48;;;;;;;6.56;100.00;97985.25;10453394;28;20037;-71
2020/12/04 15:32:57;;;;;;;3.38;1.80;;;;;;;6.61;100.00;97990.16;10503023;28;20491;-71
2020/12/04 15:37:59;;;;;;;3.65;2.25;;;;;;;6.50;100.00;97992.69;10478250;28;20045;-72
2020/12/04 15:43:00;;;;;;;2.55;1.13;;;;;;;6.36;100.00;97985.81;10469563;28;20044;-73
2020/12/04 15:48:02;;;;;;;4.00;1.40;;;;;;;6.27;100.00;97987.28;10501006;28;20040;-72
2020/12/04 15:53:03;;;;;;;2.10;1.25;;;;;;;6.27;100.00;97999.50;10484453;28;20468;-71
2020/12/04 15:58:05;;;;;;;8.15;3.92;;;;;;;6.39;100.00;98014.34;10463051;28;20052;-71
2020/12/04 16:03:06;;;;;;;6.75;4.15;;;;;;;6.41;100.00;98021.16;10439937;28;20057;-72
2020/12/04 16:08:07;;;;;;;17.65;9.85;;;;;;;6.31;100.00;98030.56;10418307;28;20052;-72
2020/12/04 16:13:08;;;;;;;26.73;13.57;;;;;;;6.16;100.00;98034.22;10442368;28;20037;-72
2020/12/04 16:18:09;;;;;;;24.67;13.57;;;;;;;5.96;100.00;98021.63;10452556;28;20481;-72
2020/12/04 16:23:10;;;;;;;30.40;13.30;;;;;;;6.13;100.00;98047.47;10443490;28;20055;-72
2020/12/04 16:28:12;;;;;;;3.47;2.40;;;;;;;6.21;100.00;98053.03;10442735;28;20064;-72
2020/12/04 16:33:13;;;;;;;3.53;1.90;;;;;;;6.08;100.00;98044.34;10442197;28;20045;-71
2020/12/04 16:38:14;;;;;;;3.05;1.70;;;;;;;6.05;100.00;98058.44;10440759;28;20049;-71
2020/12/04 16:43:15;;;;;;;3.20;1.88;;;;;;;5.85;100.00;98051.06;10459787;28;20037;-71
2020/12/04 16:48:19;;;;;;;3.13;1.73;;;;;;;5.75;100.00;98067.44;10439710;28;20064;-70
2020/12/04 16:53:20;;;;;;;3.67;1.70;;;;;;;5.76;100.00;98069.13;10450257;28;20045;-70
2020/12/04 16:58:21;;;;;;;2.80;1.60;;;;;;;5.87;100.00;98071.84;10406475;28;20412;-70
2020/12/04 17:03:26;;;;;;;3.05;1.75;;;;;;;5.84;100.00;98085.97;10427350;28;20042;-71
2020/12/04 17:08:28;;;;;;;5.45;3.10;;;;;;;5.61;100.00;98077.00;10413665;28;20307;-70
2020/12/04 17:13:30;;;;;;;4.65;1.90;;;;;;;5.52;100.00;98090.69;10407220;28;20485;-70
2020/12/04 17:18:31;;;;;;;4.35;2.47;;;;;;;5.40;100.00;98109.72;10435989;28;20049;-70
2020/12/04 17:23:37;;;;;;;5.75;3.40;;;;;;;5.40;100.00;98111.50;10418337;28;20041;-70
2020/12/04 17:28:41;;;;;;;4.03;2.28;;;;;;;5.39;100.00;98131.53;10429061;28;20041;-69
2020/12/04 17:33:42;;;;;;;5.25;2.60;;;;;;;5.34;100.00;98129.22;10456370;28;20121;-70
2020/12/04 17:38:43;;;;;;;6.57;4.30;;;;;;;5.39;100.00;98143.75;10455871;28;20049;-70
2020/12/04 17:43:44;;;;;;;4.15;2.83;;;;;;;5.54;100.00;98145.38;10436279;28;20052;-69
2020/12/04 17:48:45;;;;;;;3.47;2.47;;;;;;;5.42;100.00;98140.97;10414389;28;20037;-71
2020/12/04 17:53:46;;;;;;;5.53;2.63;;;;;;;5.38;100.00;98158.56;10424368;28;20049;-71
2020/12/04 17:58:47;;;;;;;3.25;1.90;;;;;;;5.39;100.00;98157.66;10435036;28;20056;-71
2020/12/04 18:03:48;;;;;;;3.08;1.98;;;;;;;5.40;100.00;98161.94;10414554;28;20051;-71
2020/12/04 18:08:50;;;;;;;4.40;1.98;;;;;;;5.48;100.00;98162.28;10417136;28;20056;-71
2020/12/04 18:13:52;;;;;;;2.97;1.80;;;;;;;5.57;100.00;98180.00;10454623;28;20499;-71
2020/12/04 18:18:53;;;;;;;4.07;2.75;;;;;;;5.28;100.00;98175.72;10453142;28;20086;-71
2020/12/04 18:23:54;;;;;;;5.95;4.53;;;;;;;5.18;100.00;98185.94;10417804;28;20038;-71
2020/12/04 18:28:55;;;;;;;4.55;2.58;;;;;;;5.14;100.00;98192.25;10422836;28;20056;-73
2020/12/04 18:33:57;;;;;;;4.85;2.63;;;;;;;5.09;100.00;98189.09;10395325;28;20053;-72
2020/12/04 18:38:58;;;;;;;4.60;2.03;;;;;;;5.24;100.00;98188.16;10416067;28;20045;-73
2020/12/04 18:43:59;;;;;;;5.20;2.00;;;;;;;5.27;100.00;98187.13;10447253;28;20042;-73
2020/12/04 18:49:00;;;;;;;4.07;2.75;;;;;;;5.20;100.00;98184.03;10414660;28;20045;-73
2020/12/04 18:54:01;;;;;;;2.88;1.77;;;;;;;5.10;100.00;98182.94;10453551;28;20048;-73
2020/12/04 18:59:03;;;;;;;2.72;1.75;;;;;;;5.15;100.00;98193.94;10451887;28;20084;-73
2020/12/04 19:04:04;;;;;;;3.88;2.30;;;;;;;5.17;100.00;98199.91;10442338;28;20041;-72
2020/12/04 19:09:05;;;;;;;4.57;2.30;;;;;;;5.19;100.00;98197.22;10442201;28;20044;-72
2020/12/04 19:14:06;;;;;;;6.00;3.35;;;;;;;5.08;100.00;98203.06;10412481;28;20045;-72
2020/12/04 19:19:08;;;;;;;4.85;2.50;;;;;;;4.93;100.00;98196.16;10445323;28;20045;-72
2020/12/04 19:24:09;;;;;;;5.13;3.53;;;;;;;4.78;100.00;98216.16;10425142;28;20128;-72
2020/12/04 19:29:10;;;;;;;6.28;3.75;;;;;;;4.70;100.00;98218.38;10452242;28;20045;-72
2020/12/04 19:34:11;;;;;;;5.75;2.83;;;;;;;4.44;100.00;98234.69;10453304;28;20051;-72
2020/12/04 19:39:13;;;;;;;6.93;5.53;;;;;;;4.50;100.00;98243.03;10452399;28;20045;-72
2020/12/04 19:44:14;;;;;;;6.10;3.88;;;;;;;4.62;100.00;98251.03;10441657;28;20041;-72
2020/12/04 19:49:16;;;;;;;6.65;4.13;;;;;;;4.48;100.00;98259.66;10447562;28;20041;-72
2020/12/04 19:54:17;;;;;;;6.47;4.45;;;;;;;4.47;100.00;98268.41;10420611;28;20133;-72
2020/12/04 19:59:18;;;;;;;7.60;5.30;;;;;;;4.42;100.00;98279.13;10454095;28;20060;-71
2020/12/04 20:04:20;;;;;;;7.53;5.50;;;;;;;4.20;100.00;98276.00;10446464;28;20064;-71
2020/12/04 20:09:21;;;;;;;7.75;5.13;;;;;;;4.14;100.00;98273.75;10431953;28;20398;-71
2020/12/04 20:14:22;;;;;;;7.88;4.72;;;;;;;3.94;100.00;98266.19;10450166;28;20499;-71
2020/12/04 20:19:23;;;;;;;7.00;4.40;;;;;;;3.94;100.00;98281.81;10468985;28;20049;-71
2020/12/04 20:24:25;;;;;;;6.85;3.88;;;;;;;3.71;100.00;98260.47;10432258;28;20056;-71
2020/12/04 20:29:27;;;;;;;6.45;4.55;;;;;;;3.64;100.00;98268.69;10452685;28;20045;-71
2020/12/04 20:34:29;;;;;;;23.15;12.48;;;;;;;3.57;100.00;98249.97;10444892;28;20543;-71
2020/12/04 20:39:31;;;;;;;22.45;12.57;;;;;;;3.45;100.00;98235.00;10455285;28;20045;-71
2020/12/04 20:44:33;;;;;;;11.82;6.80;;;;;;;3.42;100.00;98243.84;10456764;28;20094;-71
2020/12/04 20:49:35;;;;;;;5.88;3.97;;;;;;;3.46;100.00;98254.06;10458631;28;20106;-71
2020/12/04 20:54:36;;;;;;;8.88;5.53;;;;;;;3.25;100.00;98256.06;10435191;28;20060;-71
2020/12/04 20:59:39;;;;;;;17.42;12.88;;;;;;;2.98;100.00;98261.75;10415719;28;20057;-71
2020/12/04 21:04:40;;;;;;;10.65;7.72;;;;;;;2.91;100.00;98263.00;10416708;28;20045;-71
2020/12/04 21:09:41;;;;;;;9.23;7.35;;;;;;;2.75;100.00;98269.88;10436007;28;20041;-71
2020/12/04 21:14:42;;;;;;;7.82;6.07;;;;;;;2.63;100.00;98279.13;10458437;28;20052;-71
2020/12/04 21:19:43;;;;;;;8.38;6.40;;;;;;;2.62;100.00;98285.22;10454111;28;20037;-70
2020/12/04 21:24:44;;;;;;;8.85;6.55;;;;;;;2.71;100.00;98296.94;10414237;28;20056;-71
2020/12/04 21:29:45;;;;;;;8.30;5.28;;;;;;;2.65;100.00;98286.84;10445516;28;20045;-71
2020/12/04 21:34:47;;;;;;;8.50;5.47;;;;;;;2.48;100.00;98276.44;10455761;28;20360;-71
2020/12/04 21:39:48;;;;;;;7.97;5.88;;;;;;;2.38;100.00;98270.84;10439914;28;20079;-71
2020/12/04 21:44:50;;;;;;;10.27;6.38;;;;;;;2.20;100.00;98274.31;10447970;28;20046;-71
2020/12/04 21:49:51;;;;;;;7.43;5.55;;;;;;;1.99;100.00;98271.00;10476023;28;20041;-71
2020/12/04 21:54:52;;;;;;;7.68;5.30;;;;;;;1.73;100.00;98269.63;10488523;28;20040;-71
2020/12/04 21:59:53;;;;;;;7.85;4.93;;;;;;;1.67;100.00;98258.69;10421578;28;20417;-71
2020/12/04 22:04:54;;;;;;;8.10;5.20;;;;;;;1.72;100.00;98270.53;10417926;28;20041;-71
2020/12/04 22:09:56;;;;;;;5.78;4.32;;;;;;;1.74;100.00;98271.31;10422172;28;20043;-71
2020/12/04 22:14:58;;;;;;;9.52;5.75;;;;;;;1.68;100.00;98270.72;10453929;28;20037;-71
2020/12/04 22:20:00;;;;;;;9.75;6.63;;;;;;;1.79;100.00;98273.66;10454836;28;20032;-71
2020/12/04 22:25:01;;;;;;;7.90;7.10;;;;;;;1.88;100.00;98284.47;10453989;28;20120;-71
2020/12/04 22:30:02;;;;;;;8.52;6.20;;;;;;;1.83;100.00;98312.41;10455920;28;20041;-71
2020/12/04 22:35:03;;;;;;;10.13;6.95;;;;;;;1.70;100.00;98320.81;10434644;28;20484;-71
2020/12/04 22:40:04;;;;;;;11.43;8.80;;;;;;;1.58;100.00;98324.81;10453338;28;20048;-71
2020/12/04 22:45:06;;;;;;;16.52;11.10;;;;;;;1.56;100.00;98329.22;10454394;28;20041;-71
2020/12/04 22:50:07;;;;;;;15.82;11.98;;;;;;;1.72;100.00;98363.97;10453556;28;20044;-71
2020/12/04 22:55:10;;;;;;;15.55;12.30;;;;;;;1.57;100.00;98343.03;10453147;28;20041;-70
2020/12/04 23:00:13;;;;;;;17.95;14.25;;;;;;;1.50;100.00;98337.28;10452424;28;20050;-71
2020/12/04 23:05:14;;;;;;;7.50;6.20;;;;;;;1.28;100.00;98334.75;10463280;28;20040;-71
2020/12/04 23:10:15;;;;;;;7.55;6.28;;;;;;;1.16;100.00;98360.38;10474258;28;20076;-70
2020/12/04 23:15:16;;;;;;;8.02;6.57;;;;;;;1.12;100.00;98365.69;10452156;28;20049;-71
2020/12/04 23:20:26;;;;;;;11.27;7.80;;;;;;;1.36;100.00;98379.38;10451330;28;20094;-71
2020/12/04 23:25:28;;;;;;;10.07;7.53;;;;;;;1.61;100.00;98394.72;10449117;28;20049;-71